sensor_id;sensor_type;location;lat;lon;timestamp;P1;durP1;ratioP1;P2;durP2;ratioP2
42632;SDS011;28261;53.304;-6.284;2023-12-04T00:00:18;4.60;;;2.22;;
42632;SDS011;28261;53.304;-6.284;2023-12-04T00:02:22;4.63;;;2.03;;
42632;SDS011;28261;53.304;-6.284;2023-12-04T00:04:25;3.20;;;1.48;;
42632;SDS011;28261;53.304;-6.284;2023-12-04T00:06:29;2.90;;;1.40;;
42632;SDS011;28261;53.304;-6.284;2023-12-04T00:08:33;3.72;;;1.98;;
42632;SDS011;28261;53.304;-6.284;2023-12-04T00:10:37;3.05;;;1.55;;
42632;SDS011;28261;53.304;-6.284;2023-12-04T00:12:41;3.58;;;1.80;;
42632;SDS011;28261;53.304;-6.284;2023-12-04T00:14:46;2.88;;;1.52;;
42632;SDS011;28261;53.304;-6.284;2023-12-04T00:16:50;4.15;;;1.35;;
42632;SDS011;28261;53.304;-6.284;2023-12-04T00:18:53;3.10;;;1.63;;
42632;SDS011;28261;53.304;-6.284;2023-12-04T00:20:58;3.78;;;1.42;;
42632;SDS011;28261;53.304;-6.284;2023-12-04T00:23:01;4.28;;;1.40;;
42632;SDS011;28261;53.304;-6.284;2023-12-04T00:25:06;2.83;;;1.35;;
42632;SDS011;28261;53.304;-6.284;2023-12-04T00:27:10;3.53;;;1.42;;
42632;SDS011;28261;53.304;-6.284;2023-12-04T00:29:14;2.42;;;1.23;;
42632;SDS011;28261;53.304;-6.284;2023-12-04T00:31:19;2.72;;;1.42;;
42632;SDS011;28261;53.304;-6.284;2023-12-04T00:33:22;2.83;;;1.48;;
42632;SDS011;28261;53.304;-6.284;2023-12-04T00:35:26;4.00;;;1.80;;
42632;SDS011;28261;53.304;-6.284;2023-12-04T00:37:30;2.03;;;1.52;;
42632;SDS011;28261;53.304;-6.284;2023-12-04T00:39:39;2.47;;;1.17;;
42632;SDS011;28261;53.304;-6.284;2023-12-04T00:41:42;3.40;;;1.00;;
42632;SDS011;28261;53.304;-6.284;2023-12-04T00:43:46;3.03;;;1.15;;
42632;SDS011;28261;53.304;-6.284;2023-12-04T00:45:50;2.13;;;1.15;;
42632;SDS011;28261;53.304;-6.284;2023-12-04T00:47:55;3.42;;;1.40;;
42632;SDS011;28261;53.304;-6.284;2023-12-04T00:49:59;2.80;;;1.45;;
42632;SDS011;28261;53.304;-6.284;2023-12-04T00:52:02;2.17;;;1.13;;
42632;SDS011;28261;53.304;-6.284;2023-12-04T00:54:06;2.20;;;1.40;;
42632;SDS011;28261;53.304;-6.284;2023-12-04T00:56:10;3.55;;;1.40;;
42632;SDS011;28261;53.304;-6.284;2023-12-04T00:58:14;1.58;;;1.20;;
42632;SDS011;28261;53.304;-6.284;2023-12-04T01:00:18;2.13;;;1.35;;
42632;SDS011;28261;53.304;-6.284;2023-12-04T01:02:22;1.80;;;1.10;;
42632;SDS011;28261;53.304;-6.284;2023-12-04T01:04:27;2.50;;;1.25;;
42632;SDS011;28261;53.304;-6.284;2023-12-04T01:08:34;4.28;;;2.38;;
42632;SDS011;28261;53.304;-6.284;2023-12-04T01:10:38;4.35;;;1.52;;
42632;SDS011;28261;53.304;-6.284;2023-12-04T01:12:42;3.78;;;2.63;;
42632;SDS011;28261;53.304;-6.284;2023-12-04T01:14:45;6.20;;;1.35;;
42632;SDS011;28261;53.304;-6.284;2023-12-04T01:16:49;4.18;;;1.30;;
42632;SDS011;28261;53.304;-6.284;2023-12-04T01:18:53;2.20;;;1.27;;
42632;SDS011;28261;53.304;-6.284;2023-12-04T01:20:59;4.43;;;1.45;;
42632;SDS011;28261;53.304;-6.284;2023-12-04T01:23:02;2.78;;;1.95;;
42632;SDS011;28261;53.304;-6.284;2023-12-04T01:25:06;3.17;;;1.23;;
42632;SDS011;28261;53.304;-6.284;2023-12-04T01:29:14;6.82;;;1.33;;
42632;SDS011;28261;53.304;-6.284;2023-12-04T01:31:18;4.15;;;1.20;;
42632;SDS011;28261;53.304;-6.284;2023-12-04T01:33:22;2.15;;;1.08;;
42632;SDS011;28261;53.304;-6.284;2023-12-04T01:35:26;4.38;;;1.85;;
42632;SDS011;28261;53.304;-6.284;2023-12-04T01:37:31;7.20;;;1.85;;
42632;SDS011;28261;53.304;-6.284;2023-12-04T01:41:38;2.97;;;1.15;;
42632;SDS011;28261;53.304;-6.284;2023-12-04T01:43:42;1.65;;;1.23;;
42632;SDS011;28261;53.304;-6.284;2023-12-04T01:45:46;3.50;;;1.02;;
42632;SDS011;28261;53.304;-6.284;2023-12-04T01:47:50;3.90;;;1.58;;
42632;SDS011;28261;53.304;-6.284;2023-12-04T01:49:53;3.67;;;0.98;;
42632;SDS011;28261;53.304;-6.284;2023-12-04T01:51:57;1.45;;;0.90;;
42632;SDS011;28261;53.304;-6.284;2023-12-04T01:54:02;1.65;;;0.80;;
42632;SDS011;28261;53.304;-6.284;2023-12-04T01:56:08;1.73;;;0.77;;
42632;SDS011;28261;53.304;-6.284;2023-12-04T02:00:21;1.55;;;0.90;;
42632;SDS011;28261;53.304;-6.284;2023-12-04T02:02:25;2.60;;;1.55;;
42632;SDS011;28261;53.304;-6.284;2023-12-04T02:04:31;2.97;;;1.50;;
42632;SDS011;28261;53.304;-6.284;2023-12-04T02:06:35;1.80;;;0.98;;
42632;SDS011;28261;53.304;-6.284;2023-12-04T02:08:39;2.85;;;1.27;;
42632;SDS011;28261;53.304;-6.284;2023-12-04T02:10:45;5.65;;;1.67;;
42632;SDS011;28261;53.304;-6.284;2023-12-04T02:12:49;2.72;;;1.15;;
42632;SDS011;28261;53.304;-6.284;2023-12-04T02:14:53;3.15;;;1.50;;
42632;SDS011;28261;53.304;-6.284;2023-12-04T02:16:57;4.68;;;1.23;;
42632;SDS011;28261;53.304;-6.284;2023-12-04T02:19:04;2.95;;;1.13;;
42632;SDS011;28261;53.304;-6.284;2023-12-04T02:21:10;5.57;;;1.35;;
42632;SDS011;28261;53.304;-6.284;2023-12-04T02:23:14;4.20;;;1.38;;
42632;SDS011;28261;53.304;-6.284;2023-12-04T02:25:19;4.55;;;1.35;;
42632;SDS011;28261;53.304;-6.284;2023-12-04T02:27:37;2.65;;;1.25;;
42632;SDS011;28261;53.304;-6.284;2023-12-04T02:29:46;3.13;;;1.23;;
42632;SDS011;28261;53.304;-6.284;2023-12-04T02:31:52;3.00;;;1.10;;
42632;SDS011;28261;53.304;-6.284;2023-12-04T02:33:58;5.53;;;1.45;;
42632;SDS011;28261;53.304;-6.284;2023-12-04T02:36:04;3.08;;;1.20;;
42632;SDS011;28261;53.304;-6.284;2023-12-04T02:38:09;5.47;;;1.30;;
42632;SDS011;28261;53.304;-6.284;2023-12-04T02:40:14;4.60;;;1.80;;
42632;SDS011;28261;53.304;-6.284;2023-12-04T02:42:19;3.38;;;1.20;;
42632;SDS011;28261;53.304;-6.284;2023-12-04T02:46:26;5.88;;;1.42;;
42632;SDS011;28261;53.304;-6.284;2023-12-04T02:48:29;8.50;;;1.50;;
42632;SDS011;28261;53.304;-6.284;2023-12-04T02:50:33;5.38;;;1.42;;
42632;SDS011;28261;53.304;-6.284;2023-12-04T02:52:37;4.07;;;1.10;;
42632;SDS011;28261;53.304;-6.284;2023-12-04T02:54:40;7.07;;;1.38;;
42632;SDS011;28261;53.304;-6.284;2023-12-04T02:56:44;2.42;;;1.30;;
42632;SDS011;28261;53.304;-6.284;2023-12-04T02:58:49;4.05;;;1.42;;
42632;SDS011;28261;53.304;-6.284;2023-12-04T03:00:53;2.35;;;1.30;;
42632;SDS011;28261;53.304;-6.284;2023-12-04T03:02:57;5.25;;;1.30;;
42632;SDS011;28261;53.304;-6.284;2023-12-04T03:05:01;3.33;;;1.42;;
42632;SDS011;28261;53.304;-6.284;2023-12-04T03:07:04;4.45;;;1.40;;
42632;SDS011;28261;53.304;-6.284;2023-12-04T03:09:08;4.45;;;1.17;;
42632;SDS011;28261;53.304;-6.284;2023-12-04T03:11:12;3.15;;;1.08;;
42632;SDS011;28261;53.304;-6.284;2023-12-04T03:13:14;2.47;;;1.05;;
42632;SDS011;28261;53.304;-6.284;2023-12-04T03:15:20;3.70;;;1.20;;
42632;SDS011;28261;53.304;-6.284;2023-12-04T03:17:24;3.25;;;1.30;;
42632;SDS011;28261;53.304;-6.284;2023-12-04T03:19:28;4.75;;;1.30;;
42632;SDS011;28261;53.304;-6.284;2023-12-04T03:21:32;4.63;;;1.33;;
42632;SDS011;28261;53.304;-6.284;2023-12-04T03:23:36;2.13;;;1.10;;
42632;SDS011;28261;53.304;-6.284;2023-12-04T03:25:39;5.97;;;1.30;;
42632;SDS011;28261;53.304;-6.284;2023-12-04T03:27:43;5.25;;;1.40;;
42632;SDS011;28261;53.304;-6.284;2023-12-04T03:29:47;2.03;;;1.23;;
42632;SDS011;28261;53.304;-6.284;2023-12-04T03:31:52;3.38;;;1.80;;
42632;SDS011;28261;53.304;-6.284;2023-12-04T03:33:55;3.00;;;1.40;;
42632;SDS011;28261;53.304;-6.284;2023-12-04T03:35:59;5.78;;;1.35;;
42632;SDS011;28261;53.304;-6.284;2023-12-04T03:38:03;4.22;;;1.35;;
42632;SDS011;28261;53.304;-6.284;2023-12-04T03:40:07;2.90;;;1.13;;
42632;SDS011;28261;53.304;-6.284;2023-12-04T03:42:12;6.07;;;1.90;;
42632;SDS011;28261;53.304;-6.284;2023-12-04T03:44:16;3.60;;;1.33;;
42632;SDS011;28261;53.304;-6.284;2023-12-04T03:46:19;2.85;;;1.38;;
42632;SDS011;28261;53.304;-6.284;2023-12-04T03:48:24;3.97;;;1.20;;
42632;SDS011;28261;53.304;-6.284;2023-12-04T03:50:28;2.72;;;1.38;;
42632;SDS011;28261;53.304;-6.284;2023-12-04T03:52:32;6.00;;;1.98;;
42632;SDS011;28261;53.304;-6.284;2023-12-04T03:54:35;4.38;;;1.42;;
42632;SDS011;28261;53.304;-6.284;2023-12-04T03:56:38;2.72;;;1.27;;
42632;SDS011;28261;53.304;-6.284;2023-12-04T03:58:42;1.50;;;0.98;;
42632;SDS011;28261;53.304;-6.284;2023-12-04T04:00:45;2.90;;;1.08;;
42632;SDS011;28261;53.304;-6.284;2023-12-04T04:02:49;4.07;;;1.65;;
42632;SDS011;28261;53.304;-6.284;2023-12-04T04:04:55;3.58;;;1.30;;
42632;SDS011;28261;53.304;-6.284;2023-12-04T04:09:02;4.43;;;1.60;;
42632;SDS011;28261;53.304;-6.284;2023-12-04T04:11:06;4.78;;;1.52;;
42632;SDS011;28261;53.304;-6.284;2023-12-04T04:13:10;3.33;;;1.35;;
42632;SDS011;28261;53.304;-6.284;2023-12-04T04:15:12;3.55;;;1.70;;
42632;SDS011;28261;53.304;-6.284;2023-12-04T04:17:16;4.55;;;1.70;;
42632;SDS011;28261;53.304;-6.284;2023-12-04T04:19:20;2.08;;;1.05;;
42632;SDS011;28261;53.304;-6.284;2023-12-04T04:21:25;3.40;;;1.13;;
42632;SDS011;28261;53.304;-6.284;2023-12-04T04:23:29;4.85;;;2.20;;
42632;SDS011;28261;53.304;-6.284;2023-12-04T04:25:32;6.25;;;1.55;;
42632;SDS011;28261;53.304;-6.284;2023-12-04T04:27:36;3.83;;;1.40;;
42632;SDS011;28261;53.304;-6.284;2023-12-04T04:29:40;3.17;;;1.30;;
42632;SDS011;28261;53.304;-6.284;2023-12-04T04:31:43;6.15;;;1.40;;
42632;SDS011;28261;53.304;-6.284;2023-12-04T04:33:48;5.78;;;1.90;;
42632;SDS011;28261;53.304;-6.284;2023-12-04T04:35:51;4.57;;;1.60;;
42632;SDS011;28261;53.304;-6.284;2023-12-04T04:37:57;6.50;;;1.30;;
42632;SDS011;28261;53.304;-6.284;2023-12-04T04:40:00;2.33;;;1.42;;
42632;SDS011;28261;53.304;-6.284;2023-12-04T04:42:05;3.63;;;1.60;;
42632;SDS011;28261;53.304;-6.284;2023-12-04T04:44:08;5.00;;;1.52;;
42632;SDS011;28261;53.304;-6.284;2023-12-04T04:46:12;5.18;;;1.58;;
42632;SDS011;28261;53.304;-6.284;2023-12-04T04:48:16;3.72;;;1.30;;
42632;SDS011;28261;53.304;-6.284;2023-12-04T04:50:19;2.58;;;1.35;;
42632;SDS011;28261;53.304;-6.284;2023-12-04T04:52:23;4.05;;;1.70;;
42632;SDS011;28261;53.304;-6.284;2023-12-04T04:54:31;3.65;;;1.63;;
42632;SDS011;28261;53.304;-6.284;2023-12-04T04:56:35;4.43;;;1.90;;
42632;SDS011;28261;53.304;-6.284;2023-12-04T04:58:39;2.95;;;1.48;;
42632;SDS011;28261;53.304;-6.284;2023-12-04T05:00:42;2.15;;;1.33;;
42632;SDS011;28261;53.304;-6.284;2023-12-04T05:02:46;5.10;;;1.55;;
42632;SDS011;28261;53.304;-6.284;2023-12-04T05:04:50;3.35;;;2.17;;
42632;SDS011;28261;53.304;-6.284;2023-12-04T05:06:54;2.88;;;1.58;;
42632;SDS011;28261;53.304;-6.284;2023-12-04T05:08:58;4.18;;;2.00;;
42632;SDS011;28261;53.304;-6.284;2023-12-04T05:11:03;3.33;;;2.40;;
42632;SDS011;28261;53.304;-6.284;2023-12-04T05:13:07;3.45;;;2.90;;
42632;SDS011;28261;53.304;-6.284;2023-12-04T05:15:10;5.10;;;2.42;;
42632;SDS011;28261;53.304;-6.284;2023-12-04T05:17:14;3.72;;;2.50;;
42632;SDS011;28261;53.304;-6.284;2023-12-04T05:19:18;3.95;;;2.38;;
42632;SDS011;28261;53.304;-6.284;2023-12-04T05:21:22;4.57;;;3.25;;
42632;SDS011;28261;53.304;-6.284;2023-12-04T05:23:26;2.92;;;2.00;;
42632;SDS011;28261;53.304;-6.284;2023-12-04T05:25:30;5.30;;;2.58;;
42632;SDS011;28261;53.304;-6.284;2023-12-04T05:27:46;4.43;;;2.55;;
42632;SDS011;28261;53.304;-6.284;2023-12-04T05:29:51;4.90;;;2.38;;
42632;SDS011;28261;53.304;-6.284;2023-12-04T05:31:54;3.28;;;2.20;;
42632;SDS011;28261;53.304;-6.284;2023-12-04T05:33:59;4.53;;;2.92;;
42632;SDS011;28261;53.304;-6.284;2023-12-04T05:36:03;4.22;;;2.90;;
42632;SDS011;28261;53.304;-6.284;2023-12-04T05:38:08;4.32;;;2.53;;
42632;SDS011;28261;53.304;-6.284;2023-12-04T05:40:12;4.90;;;2.70;;
42632;SDS011;28261;53.304;-6.284;2023-12-04T05:42:16;4.10;;;2.53;;
42632;SDS011;28261;53.304;-6.284;2023-12-04T05:44:21;5.78;;;3.05;;
42632;SDS011;28261;53.304;-6.284;2023-12-04T05:46:24;5.15;;;3.00;;
42632;SDS011;28261;53.304;-6.284;2023-12-04T05:48:28;4.95;;;3.47;;
42632;SDS011;28261;53.304;-6.284;2023-12-04T05:50:32;5.38;;;3.03;;
42632;SDS011;28261;53.304;-6.284;2023-12-04T05:52:35;5.15;;;2.85;;
42632;SDS011;28261;53.304;-6.284;2023-12-04T05:54:39;4.57;;;3.00;;
42632;SDS011;28261;53.304;-6.284;2023-12-04T05:56:43;6.07;;;3.33;;
42632;SDS011;28261;53.304;-6.284;2023-12-04T05:58:47;5.70;;;3.42;;
42632;SDS011;28261;53.304;-6.284;2023-12-04T06:00:52;7.13;;;3.22;;
42632;SDS011;28261;53.304;-6.284;2023-12-04T06:02:55;5.82;;;3.42;;
42632;SDS011;28261;53.304;-6.284;2023-12-04T06:04:58;5.68;;;3.13;;
42632;SDS011;28261;53.304;-6.284;2023-12-04T06:07:02;6.45;;;3.00;;
42632;SDS011;28261;53.304;-6.284;2023-12-04T06:09:06;5.35;;;3.15;;
42632;SDS011;28261;53.304;-6.284;2023-12-04T06:11:10;5.15;;;2.97;;
42632;SDS011;28261;53.304;-6.284;2023-12-04T06:13:14;6.10;;;3.20;;
42632;SDS011;28261;53.304;-6.284;2023-12-04T06:15:18;6.72;;;3.15;;
42632;SDS011;28261;53.304;-6.284;2023-12-04T06:17:22;5.20;;;3.00;;
42632;SDS011;28261;53.304;-6.284;2023-12-04T06:19:25;5.28;;;3.58;;
42632;SDS011;28261;53.304;-6.284;2023-12-04T06:21:31;6.22;;;3.78;;
42632;SDS011;28261;53.304;-6.284;2023-12-04T06:23:35;6.32;;;3.75;;
42632;SDS011;28261;53.304;-6.284;2023-12-04T06:25:39;5.18;;;3.28;;
42632;SDS011;28261;53.304;-6.284;2023-12-04T06:27:43;6.00;;;3.58;;
42632;SDS011;28261;53.304;-6.284;2023-12-04T06:29:47;5.78;;;3.83;;
42632;SDS011;28261;53.304;-6.284;2023-12-04T06:31:54;6.38;;;3.60;;
42632;SDS011;28261;53.304;-6.284;2023-12-04T06:34:00;5.05;;;3.33;;
42632;SDS011;28261;53.304;-6.284;2023-12-04T06:36:04;6.18;;;3.70;;
42632;SDS011;28261;53.304;-6.284;2023-12-04T06:38:10;6.32;;;3.78;;
42632;SDS011;28261;53.304;-6.284;2023-12-04T06:40:18;6.97;;;3.83;;
42632;SDS011;28261;53.304;-6.284;2023-12-04T06:42:22;5.70;;;3.78;;
42632;SDS011;28261;53.304;-6.284;2023-12-04T06:44:26;8.43;;;4.30;;
42632;SDS011;28261;53.304;-6.284;2023-12-04T06:46:31;6.15;;;3.53;;
42632;SDS011;28261;53.304;-6.284;2023-12-04T06:48:39;6.13;;;3.63;;
42632;SDS011;28261;53.304;-6.284;2023-12-04T06:50:46;6.47;;;3.45;;
42632;SDS011;28261;53.304;-6.284;2023-12-04T06:52:49;6.88;;;3.63;;
42632;SDS011;28261;53.304;-6.284;2023-12-04T06:54:53;6.90;;;3.97;;
42632;SDS011;28261;53.304;-6.284;2023-12-04T06:56:57;5.82;;;3.83;;
42632;SDS011;28261;53.304;-6.284;2023-12-04T06:59:01;9.15;;;4.03;;
42632;SDS011;28261;53.304;-6.284;2023-12-04T07:01:05;7.80;;;3.97;;
42632;SDS011;28261;53.304;-6.284;2023-12-04T07:05:23;5.80;;;4.03;;
42632;SDS011;28261;53.304;-6.284;2023-12-04T07:07:28;8.00;;;3.78;;
42632;SDS011;28261;53.304;-6.284;2023-12-04T07:09:31;8.05;;;3.83;;
42632;SDS011;28261;53.304;-6.284;2023-12-04T07:11:36;6.07;;;4.45;;
42632;SDS011;28261;53.304;-6.284;2023-12-04T07:13:40;6.80;;;3.80;;
42632;SDS011;28261;53.304;-6.284;2023-12-04T07:15:44;8.40;;;4.07;;
42632;SDS011;28261;53.304;-6.284;2023-12-04T07:17:48;6.85;;;3.75;;
42632;SDS011;28261;53.304;-6.284;2023-12-04T07:19:52;6.45;;;3.88;;
42632;SDS011;28261;53.304;-6.284;2023-12-04T07:21:55;6.25;;;4.00;;
42632;SDS011;28261;53.304;-6.284;2023-12-04T07:24:01;6.68;;;4.05;;
42632;SDS011;28261;53.304;-6.284;2023-12-04T07:26:05;8.02;;;4.75;;
42632;SDS011;28261;53.304;-6.284;2023-12-04T07:28:09;7.88;;;4.03;;
42632;SDS011;28261;53.304;-6.284;2023-12-04T07:30:13;6.45;;;3.88;;
42632;SDS011;28261;53.304;-6.284;2023-12-04T07:32:20;5.63;;;4.05;;
42632;SDS011;28261;53.304;-6.284;2023-12-04T07:34:25;5.75;;;3.63;;
42632;SDS011;28261;53.304;-6.284;2023-12-04T07:38:34;6.28;;;3.47;;
42632;SDS011;28261;53.304;-6.284;2023-12-04T07:40:38;6.38;;;3.53;;
42632;SDS011;28261;53.304;-6.284;2023-12-04T07:42:42;5.82;;;3.55;;
42632;SDS011;28261;53.304;-6.284;2023-12-04T07:44:46;6.95;;;4.18;;
42632;SDS011;28261;53.304;-6.284;2023-12-04T07:46:51;5.88;;;3.97;;
42632;SDS011;28261;53.304;-6.284;2023-12-04T07:48:55;6.65;;;3.70;;
42632;SDS011;28261;53.304;-6.284;2023-12-04T07:50:59;5.63;;;3.30;;
42632;SDS011;28261;53.304;-6.284;2023-12-04T07:53:03;5.40;;;3.38;;
42632;SDS011;28261;53.304;-6.284;2023-12-04T07:55:08;6.93;;;4.05;;
42632;SDS011;28261;53.304;-6.284;2023-12-04T07:57:16;7.07;;;4.15;;
42632;SDS011;28261;53.304;-6.284;2023-12-04T07:59:19;6.40;;;3.65;;
42632;SDS011;28261;53.304;-6.284;2023-12-04T08:01:23;6.90;;;3.85;;
42632;SDS011;28261;53.304;-6.284;2023-12-04T08:03:27;6.32;;;3.95;;
42632;SDS011;28261;53.304;-6.284;2023-12-04T08:05:31;4.93;;;3.05;;
42632;SDS011;28261;53.304;-6.284;2023-12-04T08:07:35;6.47;;;3.70;;
42632;SDS011;28261;53.304;-6.284;2023-12-04T08:09:39;6.28;;;3.92;;
42632;SDS011;28261;53.304;-6.284;2023-12-04T08:11:43;8.65;;;4.28;;
42632;SDS011;28261;53.304;-6.284;2023-12-04T08:13:49;6.40;;;3.83;;
42632;SDS011;28261;53.304;-6.284;2023-12-04T08:15:52;7.68;;;4.38;;
42632;SDS011;28261;53.304;-6.284;2023-12-04T08:17:56;6.65;;;3.45;;
42632;SDS011;28261;53.304;-6.284;2023-12-04T08:20:00;7.00;;;3.65;;
42632;SDS011;28261;53.304;-6.284;2023-12-04T08:22:06;5.63;;;3.53;;
42632;SDS011;28261;53.304;-6.284;2023-12-04T08:24:12;7.18;;;3.55;;
42632;SDS011;28261;53.304;-6.284;2023-12-04T08:26:20;7.43;;;3.72;;
42632;SDS011;28261;53.304;-6.284;2023-12-04T08:28:26;9.25;;;4.43;;
42632;SDS011;28261;53.304;-6.284;2023-12-04T08:30:31;7.20;;;4.07;;
42632;SDS011;28261;53.304;-6.284;2023-12-04T08:32:35;7.20;;;4.60;;
42632;SDS011;28261;53.304;-6.284;2023-12-04T08:34:39;7.40;;;4.30;;
42632;SDS011;28261;53.304;-6.284;2023-12-04T08:36:43;6.70;;;3.72;;
42632;SDS011;28261;53.304;-6.284;2023-12-04T08:38:47;9.38;;;4.10;;
42632;SDS011;28261;53.304;-6.284;2023-12-04T08:40:52;7.55;;;4.30;;
42632;SDS011;28261;53.304;-6.284;2023-12-04T08:42:58;7.57;;;4.10;;
42632;SDS011;28261;53.304;-6.284;2023-12-04T08:45:02;8.38;;;3.90;;
42632;SDS011;28261;53.304;-6.284;2023-12-04T08:47:09;7.38;;;4.38;;
42632;SDS011;28261;53.304;-6.284;2023-12-04T08:49:13;7.18;;;3.95;;
42632;SDS011;28261;53.304;-6.284;2023-12-04T08:51:18;8.02;;;4.70;;
42632;SDS011;28261;53.304;-6.284;2023-12-04T08:53:23;7.60;;;4.47;;
42632;SDS011;28261;53.304;-6.284;2023-12-04T08:55:26;8.68;;;4.55;;
42632;SDS011;28261;53.304;-6.284;2023-12-04T08:57:30;7.85;;;4.53;;
42632;SDS011;28261;53.304;-6.284;2023-12-04T08:59:35;7.30;;;4.10;;
42632;SDS011;28261;53.304;-6.284;2023-12-04T09:01:37;8.95;;;5.53;;
42632;SDS011;28261;53.304;-6.284;2023-12-04T09:03:43;7.15;;;4.75;;
42632;SDS011;28261;53.304;-6.284;2023-12-04T09:05:48;9.07;;;4.53;;
42632;SDS011;28261;53.304;-6.284;2023-12-04T09:07:54;8.18;;;4.43;;
42632;SDS011;28261;53.304;-6.284;2023-12-04T09:10:17;8.73;;;4.50;;
42632;SDS011;28261;53.304;-6.284;2023-12-04T09:12:41;8.00;;;5.13;;
42632;SDS011;28261;53.304;-6.284;2023-12-04T09:14:45;9.05;;;4.00;;
42632;SDS011;28261;53.304;-6.284;2023-12-04T09:16:47;8.50;;;4.75;;
42632;SDS011;28261;53.304;-6.284;2023-12-04T09:18:52;8.15;;;4.28;;
42632;SDS011;28261;53.304;-6.284;2023-12-04T09:20:56;8.63;;;4.38;;
42632;SDS011;28261;53.304;-6.284;2023-12-04T09:23:01;7.15;;;4.40;;
42632;SDS011;28261;53.304;-6.284;2023-12-04T09:25:10;7.50;;;4.10;;
42632;SDS011;28261;53.304;-6.284;2023-12-04T09:27:14;7.97;;;4.28;;
42632;SDS011;28261;53.304;-6.284;2023-12-04T09:29:19;8.95;;;4.45;;
42632;SDS011;28261;53.304;-6.284;2023-12-04T09:31:26;6.72;;;4.03;;
42632;SDS011;28261;53.304;-6.284;2023-12-04T09:33:30;9.73;;;4.75;;
42632;SDS011;28261;53.304;-6.284;2023-12-04T09:35:36;11.65;;;5.25;;
42632;SDS011;28261;53.304;-6.284;2023-12-04T09:37:41;8.68;;;4.68;;
42632;SDS011;28261;53.304;-6.284;2023-12-04T09:39:45;11.85;;;5.00;;
42632;SDS011;28261;53.304;-6.284;2023-12-04T09:41:51;8.02;;;4.18;;
42632;SDS011;28261;53.304;-6.284;2023-12-04T09:43:57;10.68;;;4.13;;
42632;SDS011;28261;53.304;-6.284;2023-12-04T09:46:00;8.00;;;4.57;;
42632;SDS011;28261;53.304;-6.284;2023-12-04T09:48:05;9.35;;;4.15;;
42632;SDS011;28261;53.304;-6.284;2023-12-04T09:50:11;8.55;;;4.45;;
42632;SDS011;28261;53.304;-6.284;2023-12-04T09:52:17;8.75;;;4.25;;
42632;SDS011;28261;53.304;-6.284;2023-12-04T09:54:22;8.40;;;4.55;;
42632;SDS011;28261;53.304;-6.284;2023-12-04T09:58:31;9.35;;;4.30;;
42632;SDS011;28261;53.304;-6.284;2023-12-04T10:02:40;7.25;;;4.32;;
42632;SDS011;28261;53.304;-6.284;2023-12-04T10:04:45;8.75;;;4.75;;
42632;SDS011;28261;53.304;-6.284;2023-12-04T10:06:49;9.88;;;4.47;;
42632;SDS011;28261;53.304;-6.284;2023-12-04T10:08:56;7.95;;;4.35;;
42632;SDS011;28261;53.304;-6.284;2023-12-04T10:11:00;8.05;;;3.90;;
42632;SDS011;28261;53.304;-6.284;2023-12-04T10:13:04;7.20;;;4.07;;
42632;SDS011;28261;53.304;-6.284;2023-12-04T10:15:09;9.48;;;3.95;;
42632;SDS011;28261;53.304;-6.284;2023-12-04T10:17:14;10.55;;;5.07;;
42632;SDS011;28261;53.304;-6.284;2023-12-04T10:19:19;6.65;;;4.05;;
42632;SDS011;28261;53.304;-6.284;2023-12-04T10:21:31;9.88;;;4.95;;
42632;SDS011;28261;53.304;-6.284;2023-12-04T10:23:39;8.65;;;4.57;;
42632;SDS011;28261;53.304;-6.284;2023-12-04T10:25:45;8.13;;;4.32;;
42632;SDS011;28261;53.304;-6.284;2023-12-04T10:27:52;9.95;;;4.82;;
42632;SDS011;28261;53.304;-6.284;2023-12-04T10:29:57;7.82;;;3.88;;
42632;SDS011;28261;53.304;-6.284;2023-12-04T10:32:00;7.70;;;4.40;;
42632;SDS011;28261;53.304;-6.284;2023-12-04T10:34:05;7.80;;;3.80;;
42632;SDS011;28261;53.304;-6.284;2023-12-04T10:36:12;9.75;;;4.82;;
42632;SDS011;28261;53.304;-6.284;2023-12-04T10:38:17;8.63;;;4.57;;
42632;SDS011;28261;53.304;-6.284;2023-12-04T10:40:23;8.10;;;3.85;;
42632;SDS011;28261;53.304;-6.284;2023-12-04T10:42:29;9.23;;;4.85;;
42632;SDS011;28261;53.304;-6.284;2023-12-04T10:44:33;9.63;;;4.43;;
42632;SDS011;28261;53.304;-6.284;2023-12-04T10:46:37;9.55;;;4.43;;
42632;SDS011;28261;53.304;-6.284;2023-12-04T10:48:43;9.63;;;5.05;;
42632;SDS011;28261;53.304;-6.284;2023-12-04T10:50:49;8.63;;;4.78;;
42632;SDS011;28261;53.304;-6.284;2023-12-04T10:52:54;12.15;;;4.20;;
42632;SDS011;28261;53.304;-6.284;2023-12-04T10:54:58;9.20;;;4.07;;
42632;SDS011;28261;53.304;-6.284;2023-12-04T10:57:06;9.75;;;5.47;;
42632;SDS011;28261;53.304;-6.284;2023-12-04T10:59:13;9.00;;;4.72;;
42632;SDS011;28261;53.304;-6.284;2023-12-04T11:01:21;10.25;;;4.53;;
42632;SDS011;28261;53.304;-6.284;2023-12-04T11:03:28;9.65;;;4.55;;
42632;SDS011;28261;53.304;-6.284;2023-12-04T11:05:38;9.85;;;4.10;;
42632;SDS011;28261;53.304;-6.284;2023-12-04T11:10:11;10.15;;;4.57;;
42632;SDS011;28261;53.304;-6.284;2023-12-04T11:12:18;11.32;;;4.45;;
42632;SDS011;28261;53.304;-6.284;2023-12-04T11:14:31;8.95;;;4.65;;
42632;SDS011;28261;53.304;-6.284;2023-12-04T11:16:44;7.40;;;4.10;;
42632;SDS011;28261;53.304;-6.284;2023-12-04T11:18:54;7.95;;;4.10;;
42632;SDS011;28261;53.304;-6.284;2023-12-04T11:21:07;8.07;;;4.60;;
42632;SDS011;28261;53.304;-6.284;2023-12-04T11:23:14;6.88;;;3.58;;
42632;SDS011;28261;53.304;-6.284;2023-12-04T11:25:21;8.68;;;4.15;;
42632;SDS011;28261;53.304;-6.284;2023-12-04T11:27:27;8.05;;;4.57;;
42632;SDS011;28261;53.304;-6.284;2023-12-04T11:29:32;8.60;;;4.85;;
42632;SDS011;28261;53.304;-6.284;2023-12-04T11:31:35;8.07;;;4.72;;
42632;SDS011;28261;53.304;-6.284;2023-12-04T11:33:39;6.43;;;3.83;;
42632;SDS011;28261;53.304;-6.284;2023-12-04T11:35:43;8.38;;;4.60;;
42632;SDS011;28261;53.304;-6.284;2023-12-04T11:37:47;7.80;;;4.38;;
42632;SDS011;28261;53.304;-6.284;2023-12-04T11:39:52;6.70;;;4.30;;
42632;SDS011;28261;53.304;-6.284;2023-12-04T11:41:58;9.25;;;4.78;;
42632;SDS011;28261;53.304;-6.284;2023-12-04T11:44:03;9.43;;;4.20;;
42632;SDS011;28261;53.304;-6.284;2023-12-04T11:46:08;6.60;;;3.67;;
42632;SDS011;28261;53.304;-6.284;2023-12-04T11:48:11;11.02;;;4.10;;
42632;SDS011;28261;53.304;-6.284;2023-12-04T11:50:18;11.13;;;4.65;;
42632;SDS011;28261;53.304;-6.284;2023-12-04T11:52:31;9.10;;;4.45;;
42632;SDS011;28261;53.304;-6.284;2023-12-04T11:54:56;8.55;;;4.55;;
42632;SDS011;28261;53.304;-6.284;2023-12-04T11:59:24;9.05;;;4.50;;
42632;SDS011;28261;53.304;-6.284;2023-12-04T12:01:29;9.70;;;4.30;;
42632;SDS011;28261;53.304;-6.284;2023-12-04T12:03:36;7.93;;;4.20;;
42632;SDS011;28261;53.304;-6.284;2023-12-04T12:05:42;9.32;;;4.05;;
42632;SDS011;28261;53.304;-6.284;2023-12-04T12:07:46;9.60;;;4.03;;
42632;SDS011;28261;53.304;-6.284;2023-12-04T12:09:51;7.72;;;3.58;;
42632;SDS011;28261;53.304;-6.284;2023-12-04T12:11:54;10.25;;;4.50;;
42632;SDS011;28261;53.304;-6.284;2023-12-04T12:13:59;8.20;;;4.32;;
42632;SDS011;28261;53.304;-6.284;2023-12-04T12:16:04;7.10;;;3.88;;
42632;SDS011;28261;53.304;-6.284;2023-12-04T12:18:09;6.75;;;3.40;;
42632;SDS011;28261;53.304;-6.284;2023-12-04T12:20:14;7.85;;;4.20;;
42632;SDS011;28261;53.304;-6.284;2023-12-04T12:22:18;8.65;;;4.05;;
42632;SDS011;28261;53.304;-6.284;2023-12-04T12:24:23;8.88;;;3.95;;
42632;SDS011;28261;53.304;-6.284;2023-12-04T12:28:32;6.72;;;3.17;;
42632;SDS011;28261;53.304;-6.284;2023-12-04T12:30:38;9.52;;;4.20;;
42632;SDS011;28261;53.304;-6.284;2023-12-04T12:32:44;10.85;;;4.25;;
42632;SDS011;28261;53.304;-6.284;2023-12-04T12:34:49;8.02;;;4.00;;
42632;SDS011;28261;53.304;-6.284;2023-12-04T12:36:53;8.85;;;3.95;;
42632;SDS011;28261;53.304;-6.284;2023-12-04T12:38:57;8.43;;;4.38;;
42632;SDS011;28261;53.304;-6.284;2023-12-04T12:41:04;7.72;;;3.70;;
42632;SDS011;28261;53.304;-6.284;2023-12-04T12:43:09;8.65;;;3.95;;
42632;SDS011;28261;53.304;-6.284;2023-12-04T12:45:14;8.48;;;4.22;;
42632;SDS011;28261;53.304;-6.284;2023-12-04T12:47:19;9.43;;;4.07;;